Terminal Aerodrome Forecast
Issued by NWS

Home | Current Version | Previous Version | Graphics & Text | Print | Product List | Glossary On
Versions: 1 2 3 4 5 6 7 8 9 10 11 12 13 14 15 16 17 18 19
000
FTUS43 KICT 241131
TAFHUT
TAF
KHUT 241131Z 2412/2512 12011KT P6SM SCT015 BKN025
      TEMPO 2412/2415 SCT009 BKN015
     FM241600 32011KT P6SM SCT015 BKN025
     FM241800 33018G27KT P6SM SCT030
     FM250000 VRB05KT P6SM SCT250=

USA.gov is the U.S. government's official web portal to all federal, state and local government web resources and services.